createdAt,value
2022-12-06T00:00:20.748Z,972.91
2022-12-06T00:01:19.916Z,972.94
2022-12-06T00:02:19.988Z,972.91
2022-12-06T00:03:20.077Z,972.94
2022-12-06T00:04:20.053Z,972.93
2022-12-06T00:05:20.757Z,972.91
2022-12-06T00:06:20.093Z,972.90
2022-12-06T00:07:20.133Z,972.89
2022-12-06T00:08:20.282Z,972.93
2022-12-06T00:09:20.253Z,972.90
2022-12-06T00:10:21.250Z,972.88
2022-12-06T00:11:20.297Z,972.89
2022-12-06T00:12:20.343Z,972.90
2022-12-06T00:13:20.373Z,972.94
2022-12-06T00:14:20.440Z,972.89
2022-12-06T00:15:20.468Z,972.94
2022-12-06T00:16:20.559Z,972.90
2022-12-06T00:17:20.565Z,972.92
2022-12-06T00:18:20.584Z,972.95
2022-12-06T00:19:20.623Z,972.99
2022-12-06T00:20:20.668Z,972.97
2022-12-06T00:21:20.705Z,973.02
2022-12-06T00:22:20.766Z,972.99
2022-12-06T00:23:21.757Z,972.98
2022-12-06T00:24:20.836Z,973.00
2022-12-06T00:25:20.859Z,973.02
2022-12-06T00:26:20.914Z,972.99
2022-12-06T00:27:20.970Z,972.99
2022-12-06T00:28:20.984Z,973.00
2022-12-06T00:29:21.770Z,973.00
2022-12-06T00:30:21.061Z,973.02
2022-12-06T00:31:21.208Z,972.99
2022-12-06T00:32:21.190Z,973.00
2022-12-06T00:33:21.188Z,972.97
2022-12-06T00:34:21.225Z,973.01
2022-12-06T00:35:22.252Z,973.00
2022-12-06T00:36:21.332Z,972.98
2022-12-06T00:37:21.348Z,973.00
2022-12-06T00:38:21.386Z,972.98
2022-12-06T00:39:21.433Z,972.95
2022-12-06T00:40:22.251Z,972.94
2022-12-06T00:41:21.534Z,972.98
2022-12-06T00:42:22.271Z,972.98
2022-12-06T00:43:21.583Z,972.96
2022-12-06T00:44:21.631Z,972.98
2022-12-06T00:45:21.672Z,972.93
2022-12-06T00:46:21.796Z,972.96
2022-12-06T00:47:21.753Z,972.97
2022-12-06T00:48:22.752Z,972.95
2022-12-06T00:49:21.822Z,972.96
2022-12-06T00:50:21.868Z,972.96
2022-12-06T00:51:21.929Z,972.96
2022-12-06T00:52:21.953Z,972.93
2022-12-06T00:53:21.985Z,972.90
2022-12-06T00:54:22.753Z,972.95
2022-12-06T00:55:22.067Z,972.91
2022-12-06T00:56:22.126Z,972.91
2022-12-06T00:57:22.174Z,972.93
2022-12-06T00:58:22.184Z,972.93
2022-12-06T00:59:22.257Z,972.93
2022-12-06T01:00:22.264Z,972.92
2022-12-06T01:01:22.447Z,972.91
2022-12-06T01:02:22.354Z,972.89
2022-12-06T01:03:22.485Z,972.88
2022-12-06T01:04:22.448Z,972.90
2022-12-06T01:05:23.260Z,972.86
2022-12-06T01:06:22.507Z,972.87
2022-12-06T01:07:22.547Z,972.87
2022-12-06T01:08:22.637Z,972.85
2022-12-06T01:09:22.656Z,972.87
2022-12-06T01:10:22.703Z,972.86
2022-12-06T01:11:22.712Z,972.84
2022-12-06T01:12:23.253Z,972.87
2022-12-06T01:13:22.800Z,972.87
2022-12-06T01:14:22.837Z,972.89
2022-12-06T01:15:22.892Z,972.89
2022-12-06T01:16:22.965Z,972.88
2022-12-06T01:17:22.979Z,972.88
2022-12-06T01:18:23.019Z,972.89
2022-12-06T01:19:23.031Z,972.88
2022-12-06T01:20:23.085Z,972.91
2022-12-06T01:21:23.113Z,972.90
2022-12-06T01:22:23.181Z,972.89
2022-12-06T01:23:23.203Z,972.92
2022-12-06T01:24:23.751Z,972.90
2022-12-06T01:25:25.875Z,972.94
2022-12-06T01:26:23.319Z,972.93
2022-12-06T01:27:23.390Z,972.93
2022-12-06T01:28:23.406Z,972.95
2022-12-06T01:29:23.444Z,972.94
2022-12-06T01:30:24.315Z,972.97
2022-12-06T01:31:23.547Z,972.91
2022-12-06T01:32:23.595Z,972.89
2022-12-06T01:33:23.603Z,972.87
2022-12-06T01:34:23.637Z,972.84
2022-12-06T01:35:23.678Z,972.83
2022-12-06T01:36:24.253Z,972.82
2022-12-06T01:37:23.787Z,972.86
2022-12-06T01:38:23.800Z,972.84
2022-12-06T01:39:23.849Z,972.81
2022-12-06T01:40:23.883Z,972.83
2022-12-06T01:41:23.952Z,972.81
2022-12-06T01:42:23.971Z,972.83
2022-12-06T01:43:24.755Z,972.85
2022-12-06T01:44:24.070Z,972.80
2022-12-06T01:45:24.090Z,972.81
2022-12-06T01:46:24.199Z,972.83
2022-12-06T01:47:24.164Z,972.82
2022-12-06T01:48:24.203Z,972.80
2022-12-06T01:49:24.294Z,972.82
2022-12-06T01:50:24.946Z,972.82
2022-12-06T01:51:24.327Z,972.80
2022-12-06T01:52:24.365Z,972.77
2022-12-06T01:53:25.810Z,972.76
2022-12-06T01:54:24.476Z,972.75
2022-12-06T01:55:25.258Z,972.77
2022-12-06T01:56:24.531Z,972.75
2022-12-06T01:57:24.575Z,972.75
2022-12-06T01:58:24.635Z,972.74
2022-12-06T01:59:24.667Z,972.74
2022-12-06T02:00:25.266Z,972.76
2022-12-06T02:01:25.336Z,972.74
2022-12-06T02:02:24.825Z,972.75
2022-12-06T02:03:24.850Z,972.75
2022-12-06T02:04:24.860Z,972.74
2022-12-06T02:05:24.906Z,972.74
2022-12-06T02:06:24.938Z,972.76
2022-12-06T02:07:25.755Z,972.76
2022-12-06T02:08:25.086Z,972.77
2022-12-06T02:09:25.056Z,972.72
2022-12-06T02:10:25.754Z,972.75
2022-12-06T02:11:25.150Z,972.74
2022-12-06T02:12:25.189Z,972.72
2022-12-06T02:13:25.257Z,972.74
2022-12-06T02:14:26.269Z,972.72
2022-12-06T02:15:25.302Z,972.70
2022-12-06T02:16:25.392Z,972.70
2022-12-06T02:17:25.394Z,972.65
2022-12-06T02:18:25.455Z,972.66
2022-12-06T02:19:25.473Z,972.66
2022-12-06T02:20:26.464Z,972.65
2022-12-06T02:21:25.983Z,972.60
2022-12-06T02:22:25.599Z,972.60
2022-12-06T02:23:25.638Z,972.57
2022-12-06T02:24:27.448Z,972.54
2022-12-06T02:25:26.257Z,972.57
2022-12-06T02:26:26.255Z,972.53
2022-12-06T02:27:26.482Z,972.56
2022-12-06T02:28:26.485Z,972.50
2022-12-06T02:29:26.781Z,972.57
2022-12-06T02:30:26.766Z,972.55
2022-12-06T02:31:26.857Z,972.52
2022-12-06T02:32:26.765Z,972.51
2022-12-06T02:33:26.068Z,972.52
2022-12-06T02:34:26.762Z,972.55
2022-12-06T02:35:26.144Z,972.51
2022-12-06T02:36:26.185Z,972.54
2022-12-06T02:37:26.771Z,972.51
2022-12-06T02:38:26.765Z,972.52
2022-12-06T02:39:26.282Z,972.50
2022-12-06T02:40:26.357Z,972.54
2022-12-06T02:41:26.371Z,972.51
2022-12-06T02:42:26.403Z,972.51
2022-12-06T02:43:26.445Z,972.47
2022-12-06T02:44:27.254Z,972.47
2022-12-06T02:45:26.555Z,972.45
2022-12-06T02:46:26.639Z,972.46
2022-12-06T02:47:26.611Z,972.46
2022-12-06T02:48:26.655Z,972.46
2022-12-06T02:49:26.714Z,972.44
2022-12-06T02:50:26.733Z,972.43
2022-12-06T02:51:26.772Z,972.43
2022-12-06T02:52:26.807Z,972.43
2022-12-06T02:53:26.882Z,972.45
2022-12-06T02:54:26.887Z,972.44
2022-12-06T02:55:27.763Z,972.41
2022-12-06T02:56:27.008Z,972.42
2022-12-06T02:57:27.014Z,972.40
2022-12-06T02:58:27.056Z,972.38
2022-12-06T02:59:27.086Z,972.37
2022-12-06T03:00:27.767Z,972.36
2022-12-06T03:01:27.283Z,972.33
2022-12-06T03:02:27.261Z,972.38
2022-12-06T03:03:27.757Z,972.36
2022-12-06T03:04:27.287Z,972.38
2022-12-06T03:05:28.259Z,972.36
2022-12-06T03:06:27.404Z,972.34
2022-12-06T03:07:27.406Z,972.35
2022-12-06T03:08:27.445Z,972.33
2022-12-06T03:09:27.522Z,972.36
2022-12-06T03:10:28.270Z,972.34
2022-12-06T03:11:27.563Z,972.36
2022-12-06T03:12:27.612Z,972.35
2022-12-06T03:13:27.643Z,972.33
2022-12-06T03:14:27.726Z,972.35
2022-12-06T03:15:28.313Z,972.35
2022-12-06T03:16:27.772Z,972.38
2022-12-06T03:17:27.804Z,972.36
2022-12-06T03:18:27.878Z,972.35
2022-12-06T03:19:27.899Z,972.31
2022-12-06T03:20:27.960Z,972.31
2022-12-06T03:21:28.771Z,972.30
2022-12-06T03:22:28.006Z,972.25
2022-12-06T03:23:28.042Z,972.25
2022-12-06T03:24:28.093Z,972.20
2022-12-06T03:25:28.152Z,972.27
2022-12-06T03:26:28.157Z,972.22
2022-12-06T03:27:28.226Z,972.25
2022-12-06T03:28:28.248Z,972.25
2022-12-06T03:29:28.277Z,972.24
2022-12-06T03:30:29.263Z,972.22
2022-12-06T03:31:28.461Z,972.22
2022-12-06T03:32:28.431Z,972.25
2022-12-06T03:33:29.264Z,972.27
2022-12-06T03:34:28.482Z,972.24
2022-12-06T03:35:29.256Z,972.28
2022-12-06T03:36:28.590Z,972.27
2022-12-06T03:37:28.607Z,972.26
2022-12-06T03:38:28.633Z,972.20
2022-12-06T03:39:29.258Z,972.21
2022-12-06T03:40:29.266Z,972.23
2022-12-06T03:41:28.779Z,972.25
2022-12-06T03:42:28.823Z,972.22
2022-12-06T03:43:28.858Z,972.24
2022-12-06T03:44:29.760Z,972.24
2022-12-06T03:45:29.783Z,972.23
2022-12-06T03:46:29.060Z,972.22
2022-12-06T03:47:28.998Z,972.22
2022-12-06T03:48:29.066Z,972.21
2022-12-06T03:49:29.076Z,972.23
2022-12-06T03:50:29.761Z,972.20
2022-12-06T03:51:29.767Z,972.23
2022-12-06T03:52:29.198Z,972.24
2022-12-06T03:53:29.260Z,972.25
2022-12-06T03:54:29.277Z,972.21
2022-12-06T03:55:30.259Z,972.22
2022-12-06T03:56:29.378Z,972.28
2022-12-06T03:57:29.390Z,972.23
2022-12-06T03:58:29.460Z,972.19
2022-12-06T03:59:29.509Z,972.21
2022-12-06T04:00:30.269Z,972.23
2022-12-06T04:01:29.594Z,972.20
2022-12-06T04:02:29.583Z,972.21
2022-12-06T04:03:29.686Z,972.20
2022-12-06T04:04:30.258Z,972.22
2022-12-06T04:05:30.260Z,972.20
2022-12-06T04:06:29.763Z,972.22
2022-12-06T04:07:29.781Z,972.20
2022-12-06T04:08:29.825Z,972.23
2022-12-06T04:09:29.870Z,972.19
2022-12-06T04:10:29.932Z,972.19
2022-12-06T04:11:29.950Z,972.22
2022-12-06T04:12:29.988Z,972.22
2022-12-06T04:13:30.041Z,972.21
2022-12-06T04:14:30.064Z,972.22
2022-12-06T04:15:30.768Z,972.18
2022-12-06T04:16:30.234Z,972.17
2022-12-06T04:17:30.757Z,972.14
2022-12-06T04:18:30.238Z,972.14
2022-12-06T04:19:30.266Z,972.18
2022-12-06T04:20:31.267Z,972.10
2022-12-06T04:21:31.265Z,972.12
2022-12-06T04:22:31.260Z,972.10
2022-12-06T04:23:30.439Z,972.07
2022-12-06T04:24:30.465Z,972.07
2022-12-06T04:25:31.264Z,972.04
2022-12-06T04:26:31.263Z,972.02
2022-12-06T04:27:30.574Z,972.01
2022-12-06T04:28:30.638Z,972.01
2022-12-06T04:29:30.660Z,972.01
2022-12-06T04:30:31.259Z,972.00
2022-12-06T04:31:30.773Z,971.99
2022-12-06T04:32:30.772Z,971.98
2022-12-06T04:33:30.852Z,971.98
2022-12-06T04:34:30.862Z,972.01
2022-12-06T04:35:31.760Z,972.01
2022-12-06T04:36:31.767Z,972.04
2022-12-06T04:37:30.969Z,972.05
2022-12-06T04:38:31.031Z,971.98
2022-12-06T04:39:31.072Z,972.00
2022-12-06T04:40:31.772Z,971.98
2022-12-06T04:41:31.760Z,972.03
2022-12-06T04:42:32.956Z,972.03
2022-12-06T04:43:31.213Z,972.04
2022-12-06T04:44:31.249Z,972.07
2022-12-06T04:45:31.289Z,972.01
2022-12-06T04:46:31.453Z,971.96
2022-12-06T04:47:31.362Z,971.99
2022-12-06T04:48:31.418Z,972.02
2022-12-06T04:49:31.449Z,972.00
2022-12-06T04:50:31.504Z,972.00
2022-12-06T04:51:31.998Z,971.95
2022-12-06T04:52:35.646Z,971.97
2022-12-06T04:53:31.601Z,972.00
2022-12-06T04:54:31.649Z,971.97
2022-12-06T04:55:32.270Z,971.95
2022-12-06T04:56:32.261Z,971.96
2022-12-06T04:57:31.788Z,971.88
2022-12-06T04:58:31.796Z,971.90
2022-12-06T04:59:32.761Z,971.92
2022-12-06T05:00:32.821Z,971.86
2022-12-06T05:01:31.942Z,971.86
2022-12-06T05:02:31.954Z,971.85
2022-12-06T05:03:32.837Z,971.85
2022-12-06T05:04:32.760Z,971.88
2022-12-06T05:05:32.100Z,971.82
2022-12-06T05:06:32.765Z,971.84
2022-12-06T05:07:32.814Z,971.82
2022-12-06T05:08:32.769Z,971.82
2022-12-06T05:09:32.760Z,971.79
2022-12-06T05:10:32.297Z,971.82
2022-12-06T05:11:33.265Z,971.80
2022-12-06T05:12:33.259Z,971.80
2022-12-06T05:13:33.257Z,971.79
2022-12-06T05:14:33.259Z,971.78
2022-12-06T05:15:32.499Z,971.80
2022-12-06T05:16:32.607Z,971.77
2022-12-06T05:17:32.574Z,971.77
2022-12-06T05:18:33.268Z,971.75
2022-12-06T05:19:32.627Z,971.77
2022-12-06T05:20:33.260Z,971.75
2022-12-06T05:21:33.257Z,971.81
2022-12-06T05:22:32.771Z,971.78
2022-12-06T05:23:32.784Z,971.80
2022-12-06T05:24:33.756Z,971.82
2022-12-06T05:25:33.758Z,971.86
2022-12-06T05:26:33.767Z,971.85
2022-12-06T05:27:35.943Z,971.84
2022-12-06T05:28:33.761Z,971.88
2022-12-06T05:29:33.047Z,971.83
2022-12-06T05:30:33.775Z,971.80
2022-12-06T05:31:33.829Z,971.80
2022-12-06T05:32:33.759Z,971.80
2022-12-06T05:33:33.161Z,971.78
2022-12-06T05:34:33.231Z,971.79
2022-12-06T05:35:33.267Z,971.77
2022-12-06T05:36:34.273Z,971.81
2022-12-06T05:37:33.327Z,971.81
2022-12-06T05:38:33.367Z,971.81
2022-12-06T05:39:33.432Z,971.83
2022-12-06T05:40:34.259Z,971.80
2022-12-06T05:41:33.496Z,971.80
2022-12-06T05:42:34.266Z,971.81
2022-12-06T05:43:33.554Z,971.78
2022-12-06T05:44:33.595Z,971.81
2022-12-06T05:45:34.298Z,971.77
2022-12-06T05:46:33.707Z,971.80
2022-12-06T05:47:34.260Z,971.81
2022-12-06T05:48:33.762Z,971.81
2022-12-06T05:49:33.798Z,971.81
2022-12-06T05:50:33.895Z,971.75
2022-12-06T05:51:33.903Z,971.79
2022-12-06T05:52:34.763Z,971.77
2022-12-06T05:53:34.768Z,971.78
2022-12-06T05:54:34.758Z,971.82
2022-12-06T05:55:34.034Z,971.81
2022-12-06T05:56:34.091Z,971.80
2022-12-06T05:57:34.768Z,971.81
2022-12-06T05:58:34.760Z,971.81
2022-12-06T05:59:34.769Z,971.77
2022-12-06T06:00:34.768Z,971.77
2022-12-06T06:01:34.289Z,971.75
2022-12-06T06:02:34.430Z,971.78
2022-12-06T06:03:35.327Z,971.71
2022-12-06T06:04:34.375Z,971.71
2022-12-06T06:05:35.271Z,971.73
2022-12-06T06:06:35.258Z,971.70
2022-12-06T06:07:34.629Z,971.66
2022-12-06T06:08:34.571Z,971.68
2022-12-06T06:09:35.267Z,971.62
2022-12-06T06:10:34.634Z,971.63
2022-12-06T06:11:34.681Z,971.64
2022-12-06T06:12:35.262Z,971.60
2022-12-06T06:13:35.268Z,971.60
2022-12-06T06:14:35.758Z,971.59
2022-12-06T06:15:35.758Z,971.57
2022-12-06T06:16:34.920Z,971.59
2022-12-06T06:17:35.767Z,971.60
2022-12-06T06:18:35.837Z,971.62
2022-12-06T06:19:34.973Z,971.61
2022-12-06T06:20:34.998Z,971.61
2022-12-06T06:21:35.061Z,971.64
2022-12-06T06:22:35.758Z,971.65
2022-12-06T06:23:35.766Z,971.65
2022-12-06T06:24:35.188Z,971.62
2022-12-06T06:25:35.755Z,971.62
2022-12-06T06:26:35.235Z,971.57
2022-12-06T06:27:36.261Z,971.55
2022-12-06T06:28:35.325Z,971.56
2022-12-06T06:29:36.346Z,971.48
2022-12-06T06:30:36.267Z,971.52
2022-12-06T06:31:36.281Z,971.51
2022-12-06T06:32:35.475Z,971.52
2022-12-06T06:33:36.264Z,971.51
2022-12-06T06:34:35.591Z,971.47
2022-12-06T06:35:35.612Z,971.47
2022-12-06T06:36:38.902Z,971.42
2022-12-06T06:37:35.669Z,971.41
2022-12-06T06:38:35.747Z,971.44
2022-12-06T06:39:36.258Z,971.41
2022-12-06T06:40:35.817Z,971.39
2022-12-06T06:41:35.864Z,971.39
2022-12-06T06:42:36.762Z,971.40
2022-12-06T06:43:35.928Z,971.39
2022-12-06T06:44:35.946Z,971.38
2022-12-06T06:45:36.104Z,971.36
2022-12-06T06:46:36.060Z,971.37
2022-12-06T06:47:36.102Z,971.37
2022-12-06T06:48:36.758Z,971.37
2022-12-06T06:49:36.150Z,971.39
2022-12-06T06:50:36.207Z,971.41
2022-12-06T06:51:36.269Z,971.41
2022-12-06T06:52:37.268Z,971.38
2022-12-06T06:53:36.313Z,971.40
2022-12-06T06:54:36.353Z,971.38
2022-12-06T06:55:36.422Z,971.40
2022-12-06T06:56:36.423Z,971.42
2022-12-06T06:57:37.269Z,971.38
2022-12-06T06:58:36.503Z,971.41
2022-12-06T06:59:36.542Z,971.40
2022-12-06T07:00:36.613Z,971.43
2022-12-06T07:01:36.678Z,971.44
2022-12-06T07:02:36.714Z,971.42
2022-12-06T07:03:37.269Z,971.47
2022-12-06T07:04:36.740Z,971.41
2022-12-06T07:05:36.807Z,971.36
2022-12-06T07:06:36.822Z,971.39
2022-12-06T07:07:36.903Z,971.43
2022-12-06T07:08:36.925Z,971.44
2022-12-06T07:09:37.772Z,971.41
2022-12-06T07:10:36.982Z,971.37
2022-12-06T07:11:37.045Z,971.35
2022-12-06T07:12:37.061Z,971.37
2022-12-06T07:13:37.106Z,971.34
2022-12-06T07:14:37.770Z,971.35
2022-12-06T07:15:37.774Z,971.38
2022-12-06T07:16:37.291Z,971.33
2022-12-06T07:17:37.260Z,971.32
2022-12-06T07:18:37.331Z,971.35
2022-12-06T07:19:37.345Z,971.40
2022-12-06T07:20:37.389Z,971.33
2022-12-06T07:21:38.261Z,971.32
2022-12-06T07:22:37.493Z,971.35
2022-12-06T07:23:37.537Z,971.37
2022-12-06T07:24:42.141Z,971.40
2022-12-06T07:25:37.579Z,971.40
2022-12-06T07:26:37.631Z,971.39
2022-12-06T07:27:38.269Z,971.35
2022-12-06T07:28:37.744Z,971.35
2022-12-06T07:29:37.741Z,971.34
2022-12-06T07:30:37.868Z,971.35
2022-12-06T07:31:37.897Z,971.35
2022-12-06T07:32:37.871Z,971.39
2022-12-06T07:33:37.936Z,971.36
2022-12-06T07:34:37.951Z,971.32
2022-12-06T07:36:10.507Z,971.32
2022-12-06T07:36:38.057Z,971.34
2022-12-06T07:37:38.068Z,971.36
2022-12-06T07:38:38.115Z,971.38
2022-12-06T07:39:38.762Z,971.36
2022-12-06T07:41:05.591Z,971.37
2022-12-06T07:41:38.235Z,971.33
2022-12-06T07:42:38.293Z,971.31
2022-12-06T07:43:38.319Z,971.32
2022-12-06T07:44:38.358Z,971.29
2022-12-06T07:45:39.330Z,971.27
2022-12-06T07:46:38.497Z,971.27
2022-12-06T07:47:38.506Z,971.30
2022-12-06T07:48:39.263Z,971.40
2022-12-06T07:49:38.552Z,971.39
2022-12-06T07:50:38.604Z,971.38
2022-12-06T07:51:39.269Z,971.38
2022-12-06T07:52:38.717Z,971.41
2022-12-06T07:53:38.715Z,971.44
2022-12-06T07:54:38.769Z,971.47
2022-12-06T07:55:38.799Z,971.45
2022-12-06T07:56:38.847Z,971.42
2022-12-06T07:57:43.156Z,971.39
2022-12-06T07:58:38.921Z,971.36
2022-12-06T07:59:39.028Z,971.37
2022-12-06T08:00:39.765Z,971.29
2022-12-06T08:01:39.090Z,971.34
2022-12-06T08:02:39.098Z,971.42
2022-12-06T08:03:39.764Z,971.45
2022-12-06T08:04:39.217Z,971.44
2022-12-06T08:05:39.766Z,971.45
2022-12-06T08:06:39.260Z,971.39
2022-12-06T08:07:39.374Z,971.35
2022-12-06T08:08:39.358Z,971.36
2022-12-06T08:09:39.417Z,971.40
2022-12-06T08:10:39.434Z,971.41
2022-12-06T08:11:39.479Z,971.41
2022-12-06T08:12:39.520Z,971.40
2022-12-06T08:13:39.593Z,971.39
2022-12-06T08:14:39.647Z,971.40
2022-12-06T08:15:40.322Z,971.38
2022-12-06T08:16:39.704Z,971.39
2022-12-06T08:17:39.738Z,971.34
2022-12-06T08:18:39.791Z,971.37
2022-12-06T08:19:39.855Z,971.40
2022-12-06T08:20:39.873Z,971.42
2022-12-06T08:21:39.909Z,971.43
2022-12-06T08:22:39.955Z,971.43
2022-12-06T08:23:39.996Z,971.41
2022-12-06T08:24:40.065Z,971.46
2022-12-06T08:25:40.084Z,971.48
2022-12-06T08:26:40.157Z,971.49
2022-12-06T08:27:40.171Z,971.48
2022-12-06T08:28:40.210Z,971.49
2022-12-06T08:29:40.254Z,971.44
2022-12-06T08:30:41.329Z,971.51
2022-12-06T08:31:40.396Z,971.49
2022-12-06T08:32:40.395Z,971.46
2022-12-06T08:33:40.436Z,971.44
2022-12-06T08:34:40.470Z,971.44
2022-12-06T08:35:40.549Z,971.39
2022-12-06T08:36:40.574Z,971.44
2022-12-06T08:37:41.277Z,971.42
2022-12-06T08:38:40.683Z,971.40
2022-12-06T08:39:40.682Z,971.40
2022-12-06T08:40:40.732Z,971.38
2022-12-06T08:41:40.769Z,971.40
2022-12-06T08:42:40.817Z,971.36
2022-12-06T08:43:40.881Z,971.35
2022-12-06T08:44:41.769Z,971.34
2022-12-06T08:45:41.781Z,971.40
2022-12-06T08:46:41.064Z,971.43
2022-12-06T08:47:41.143Z,971.43
2022-12-06T08:48:43.124Z,971.40
2022-12-06T08:49:41.150Z,971.39
2022-12-06T08:50:41.834Z,971.37
2022-12-06T08:51:41.980Z,971.43
2022-12-06T08:52:41.294Z,971.42
2022-12-06T08:53:42.015Z,971.37
2022-12-06T08:54:42.011Z,971.36
2022-12-06T08:55:41.424Z,971.37
2022-12-06T08:56:42.308Z,971.37
2022-12-06T08:57:41.474Z,971.39
2022-12-06T08:58:41.541Z,971.44
2022-12-06T08:59:41.630Z,971.40
2022-12-06T09:00:41.670Z,971.35
2022-12-06T09:01:41.700Z,971.31
2022-12-06T09:02:42.332Z,971.37
2022-12-06T09:03:41.746Z,971.38
2022-12-06T09:04:41.954Z,971.40
2022-12-06T09:05:42.835Z,971.42
2022-12-06T09:06:41.872Z,971.43
2022-12-06T09:07:42.888Z,971.42
2022-12-06T09:08:42.004Z,971.44
2022-12-06T09:09:42.070Z,971.43
2022-12-06T09:10:42.121Z,971.39
2022-12-06T09:11:42.143Z,971.45
2022-12-06T09:12:42.782Z,971.46
2022-12-06T09:13:42.824Z,971.43
2022-12-06T09:14:42.192Z,971.45
2022-12-06T09:15:42.821Z,971.46
2022-12-06T09:16:42.386Z,971.49
2022-12-06T09:17:42.284Z,971.49
2022-12-06T09:18:42.340Z,971.48
2022-12-06T09:19:42.440Z,971.47
2022-12-06T09:20:43.284Z,971.42
2022-12-06T09:21:42.598Z,971.50
2022-12-06T09:22:42.514Z,971.49
2022-12-06T09:23:42.627Z,971.51
2022-12-06T09:24:42.712Z,971.51
2022-12-06T09:25:43.275Z,971.50
2022-12-06T09:26:42.726Z,971.48
2022-12-06T09:27:42.742Z,971.51
2022-12-06T09:28:42.882Z,971.50
2022-12-06T09:29:42.878Z,971.52
2022-12-06T09:30:43.900Z,971.51
2022-12-06T09:31:43.857Z,971.46
2022-12-06T09:32:42.982Z,971.48
2022-12-06T09:33:43.110Z,971.47
2022-12-06T09:34:43.093Z,971.48
2022-12-06T09:35:43.775Z,971.47
2022-12-06T09:36:43.145Z,971.45
2022-12-06T09:37:43.185Z,971.47
2022-12-06T09:38:43.244Z,971.45
2022-12-06T09:39:43.267Z,971.44
2022-12-06T09:40:43.777Z,971.45
2022-12-06T09:41:43.322Z,971.41
2022-12-06T09:42:43.394Z,971.43
2022-12-06T09:43:44.280Z,971.45
2022-12-06T09:44:43.441Z,971.46
2022-12-06T09:45:44.284Z,971.46
2022-12-06T09:46:43.629Z,971.45
2022-12-06T09:47:43.595Z,971.42
2022-12-06T09:48:48.907Z,971.37
2022-12-06T09:49:43.663Z,971.35
2022-12-06T09:50:43.739Z,971.36
2022-12-06T09:51:43.747Z,971.37
2022-12-06T09:52:43.790Z,971.42
2022-12-06T09:53:44.855Z,971.38
2022-12-06T09:54:49.036Z,971.36
2022-12-06T09:55:43.945Z,971.34
2022-12-06T09:56:44.004Z,971.30
2022-12-06T09:57:44.012Z,971.29
2022-12-06T09:58:44.049Z,971.32
2022-12-06T09:59:44.110Z,971.31
2022-12-06T10:00:44.164Z,971.32
2022-12-06T10:01:44.900Z,971.26
2022-12-06T10:02:44.322Z,971.24
2022-12-06T10:03:44.366Z,971.23
2022-12-06T10:04:44.349Z,971.26
2022-12-06T10:05:48.076Z,971.25
2022-12-06T10:06:45.302Z,971.24
2022-12-06T10:07:44.524Z,971.23
2022-12-06T10:08:44.695Z,971.22
2022-12-06T10:09:44.553Z,971.19
2022-12-06T10:10:45.287Z,971.17
2022-12-06T10:11:44.612Z,971.17
2022-12-06T10:12:44.661Z,971.14
2022-12-06T10:13:44.727Z,971.17
2022-12-06T10:14:44.772Z,971.15
2022-12-06T10:15:45.812Z,971.16
2022-12-06T10:16:44.966Z,971.13
2022-12-06T10:17:50.571Z,971.10
2022-12-06T10:18:44.918Z,971.09
2022-12-06T10:19:44.986Z,971.11
2022-12-06T10:20:45.780Z,971.11
2022-12-06T10:21:45.075Z,971.12
2022-12-06T10:22:45.098Z,971.11
2022-12-06T10:23:45.154Z,971.09
2022-12-06T10:24:45.788Z,971.11
2022-12-06T10:25:45.253Z,971.10
2022-12-06T10:26:45.287Z,971.15
2022-12-06T10:27:45.307Z,971.12
2022-12-06T10:28:45.382Z,971.10
2022-12-06T10:29:45.393Z,971.15
2022-12-06T10:30:46.315Z,971.13
2022-12-06T10:31:46.313Z,971.11
2022-12-06T10:32:45.549Z,971.15
2022-12-06T10:33:45.578Z,971.10
2022-12-06T10:34:49.112Z,971.15
2022-12-06T10:35:46.284Z,971.07
2022-12-06T10:36:46.296Z,971.08
2022-12-06T10:37:45.781Z,971.10
2022-12-06T10:38:46.305Z,971.14
2022-12-06T10:39:51.546Z,971.13
2022-12-06T10:40:45.903Z,971.15
2022-12-06T10:41:45.963Z,971.17
2022-12-06T10:42:46.830Z,971.13
2022-12-06T10:43:46.027Z,971.11
2022-12-06T10:44:46.080Z,971.14
2022-12-06T10:45:46.125Z,971.16
2022-12-06T10:46:46.181Z,971.15
2022-12-06T10:47:46.849Z,971.17
2022-12-06T10:48:46.272Z,971.16
2022-12-06T10:49:46.275Z,971.18
2022-12-06T10:50:47.297Z,971.15
2022-12-06T10:51:46.353Z,971.15
2022-12-06T10:52:46.411Z,971.15
2022-12-06T10:53:46.659Z,971.15
2022-12-06T10:54:47.317Z,971.14
2022-12-06T10:55:47.342Z,971.12
2022-12-06T10:56:46.604Z,971.18
2022-12-06T10:57:46.644Z,971.16
2022-12-06T10:58:46.699Z,971.16
2022-12-06T10:59:46.702Z,971.14
2022-12-06T11:00:47.297Z,971.16
2022-12-06T11:01:46.866Z,971.17
2022-12-06T11:02:46.836Z,971.18
2022-12-06T11:03:46.910Z,971.20
2022-12-06T11:04:47.788Z,971.20
2022-12-06T11:05:49.793Z,971.20
2022-12-06T11:06:53.049Z,971.24
2022-12-06T11:07:48.033Z,971.17
2022-12-06T11:08:48.982Z,971.21
2022-12-06T11:09:47.979Z,971.24
2022-12-06T11:10:47.234Z,971.19
2022-12-06T11:11:47.264Z,971.19
2022-12-06T11:12:47.797Z,971.17
2022-12-06T11:13:48.018Z,971.17
2022-12-06T11:14:48.297Z,971.19
2022-12-06T11:15:47.496Z,971.20
2022-12-06T11:16:48.333Z,971.19
2022-12-06T11:17:47.503Z,971.21
2022-12-06T11:18:48.301Z,971.16
2022-12-06T11:19:47.594Z,971.19
2022-12-06T11:20:47.674Z,971.19
2022-12-06T11:21:48.296Z,971.18
2022-12-06T11:22:48.289Z,971.19
2022-12-06T11:23:47.776Z,971.17
2022-12-06T11:24:48.797Z,971.16
2022-12-06T11:25:47.975Z,971.15
2022-12-06T11:26:48.876Z,971.10
2022-12-06T11:27:48.907Z,971.12
2022-12-06T11:28:48.186Z,971.09
2022-12-06T11:29:48.223Z,971.04
2022-12-06T11:30:48.210Z,971.04
2022-12-06T11:31:48.271Z,971.03
2022-12-06T11:32:48.852Z,971.04
2022-12-06T11:33:48.838Z,970.99
2022-12-06T11:34:48.333Z,971.04
2022-12-06T11:35:49.349Z,971.00
2022-12-06T11:36:49.304Z,971.01
2022-12-06T11:37:49.326Z,971.02
2022-12-06T11:38:49.321Z,971.00
2022-12-06T11:39:48.610Z,971.01
2022-12-06T11:40:49.340Z,971.00
2022-12-06T11:41:49.305Z,970.99
2022-12-06T11:42:48.791Z,971.01
2022-12-06T11:43:49.295Z,970.97
2022-12-06T11:44:50.040Z,970.95
2022-12-06T11:45:48.936Z,970.97
2022-12-06T11:46:49.850Z,970.94
2022-12-06T11:47:49.796Z,970.93
2022-12-06T11:48:49.795Z,970.94
2022-12-06T11:49:49.012Z,970.93
2022-12-06T11:50:49.131Z,970.91
2022-12-06T11:51:49.814Z,970.93
2022-12-06T11:52:49.806Z,970.93
2022-12-06T11:53:49.172Z,970.88
2022-12-06T11:54:49.864Z,970.91
2022-12-06T11:55:49.348Z,970.84
2022-12-06T11:56:49.812Z,970.90
2022-12-06T11:57:50.341Z,970.87
2022-12-06T11:58:50.340Z,970.86
2022-12-06T11:59:49.449Z,970.83
2022-12-06T12:00:49.583Z,970.83
2022-12-06T12:01:49.636Z,970.85
2022-12-06T12:02:50.394Z,970.85
2022-12-06T12:03:50.388Z,970.85
2022-12-06T12:04:50.327Z,970.83
2022-12-06T12:05:50.329Z,970.85
2022-12-06T12:06:49.834Z,970.86
2022-12-06T12:07:49.889Z,970.86
2022-12-06T12:08:50.858Z,970.85
2022-12-06T12:09:50.860Z,970.84
2022-12-06T12:10:49.929Z,970.80
2022-12-06T12:11:50.814Z,970.81
2022-12-06T12:12:50.808Z,970.78
2022-12-06T12:13:50.076Z,970.79
2022-12-06T12:14:51.264Z,970.78
2022-12-06T12:15:50.801Z,970.79
2022-12-06T12:16:50.869Z,970.77
2022-12-06T12:17:50.800Z,970.74
2022-12-06T12:18:50.290Z,970.76
2022-12-06T12:19:50.319Z,970.77
2022-12-06T12:20:51.301Z,970.71
2022-12-06T12:21:54.424Z,970.70
2022-12-06T12:22:51.300Z,970.72
2022-12-06T12:23:50.512Z,970.73
2022-12-06T12:25:19.965Z,970.72
2022-12-06T12:25:50.689Z,970.70
2022-12-06T12:26:51.365Z,970.66
2022-12-06T12:27:51.332Z,970.68
2022-12-06T12:28:50.823Z,970.70